sensor_id;sensor_type;location;lat;lon;timestamp;P1;durP1;ratioP1;P2;durP2;ratioP2
19645;SDS011;9971;52.446;13.452;2023-12-20T00:04:05;3.45;;;3.22;;
19645;SDS011;9971;52.446;13.452;2023-12-20T00:09:08;3.13;;;2.93;;
19645;SDS011;9971;52.446;13.452;2023-12-20T00:14:10;3.00;;;2.80;;
19645;SDS011;9971;52.446;13.452;2023-12-20T00:19:12;2.52;;;2.37;;
19645;SDS011;9971;52.446;13.452;2023-12-20T00:24:15;2.55;;;2.42;;
19645;SDS011;9971;52.446;13.452;2023-12-20T00:29:17;3.05;;;2.85;;
19645;SDS011;9971;52.446;13.452;2023-12-20T00:34:20;2.85;;;2.58;;
19645;SDS011;9971;52.446;13.452;2023-12-20T00:39:22;2.62;;;2.42;;
19645;SDS011;9971;52.446;13.452;2023-12-20T00:44:25;3.00;;;2.80;;
19645;SDS011;9971;52.446;13.452;2023-12-20T00:49:27;2.62;;;2.45;;
19645;SDS011;9971;52.446;13.452;2023-12-20T00:54:29;3.00;;;2.80;;
19645;SDS011;9971;52.446;13.452;2023-12-20T00:59:32;2.80;;;2.60;;
19645;SDS011;9971;52.446;13.452;2023-12-20T01:04:34;2.62;;;2.50;;
19645;SDS011;9971;52.446;13.452;2023-12-20T01:09:37;2.47;;;2.35;;
19645;SDS011;9971;52.446;13.452;2023-12-20T01:14:39;2.67;;;2.47;;
19645;SDS011;9971;52.446;13.452;2023-12-20T01:19:42;3.08;;;2.87;;
19645;SDS011;9971;52.446;13.452;2023-12-20T01:24:44;2.92;;;2.72;;
19645;SDS011;9971;52.446;13.452;2023-12-20T01:29:47;2.83;;;2.63;;
19645;SDS011;9971;52.446;13.452;2023-12-20T01:34:49;2.62;;;2.47;;
19645;SDS011;9971;52.446;13.452;2023-12-20T01:39:52;2.50;;;2.37;;
19645;SDS011;9971;52.446;13.452;2023-12-20T01:44:54;2.65;;;2.37;;
19645;SDS011;9971;52.446;13.452;2023-12-20T01:49:57;2.70;;;2.50;;
19645;SDS011;9971;52.446;13.452;2023-12-20T01:54:59;2.73;;;2.63;;
19645;SDS011;9971;52.446;13.452;2023-12-20T02:00:01;3.00;;;2.80;;
19645;SDS011;9971;52.446;13.452;2023-12-20T02:05:03;2.87;;;2.67;;
19645;SDS011;9971;52.446;13.452;2023-12-20T02:10:06;2.93;;;2.73;;
19645;SDS011;9971;52.446;13.452;2023-12-20T02:15:08;2.53;;;2.43;;
19645;SDS011;9971;52.446;13.452;2023-12-20T02:20:10;2.80;;;2.60;;
19645;SDS011;9971;52.446;13.452;2023-12-20T02:25:13;2.17;;;2.08;;
19645;SDS011;9971;52.446;13.452;2023-12-20T02:30:16;2.10;;;2.00;;
19645;SDS011;9971;52.446;13.452;2023-12-20T02:35:19;1.80;;;1.70;;
19645;SDS011;9971;52.446;13.452;2023-12-20T02:40:21;2.25;;;2.15;;
19645;SDS011;9971;52.446;13.452;2023-12-20T02:45:24;1.80;;;1.70;;
19645;SDS011;9971;52.446;13.452;2023-12-20T02:50:26;2.30;;;2.20;;
19645;SDS011;9971;52.446;13.452;2023-12-20T02:55:28;2.25;;;2.15;;
19645;SDS011;9971;52.446;13.452;2023-12-20T03:00:31;2.20;;;2.10;;
19645;SDS011;9971;52.446;13.452;2023-12-20T03:05:33;2.72;;;2.58;;
19645;SDS011;9971;52.446;13.452;2023-12-20T03:10:36;2.60;;;2.40;;
19645;SDS011;9971;52.446;13.452;2023-12-20T03:15:38;2.70;;;2.47;;
19645;SDS011;9971;52.446;13.452;2023-12-20T03:20:41;2.63;;;2.43;;
19645;SDS011;9971;52.446;13.452;2023-12-20T03:25:43;2.60;;;2.40;;
19645;SDS011;9971;52.446;13.452;2023-12-20T03:30:46;2.85;;;2.62;;
19645;SDS011;9971;52.446;13.452;2023-12-20T03:35:48;3.90;;;2.55;;
19645;SDS011;9971;52.446;13.452;2023-12-20T03:40:51;2.70;;;2.37;;
19645;SDS011;9971;52.446;13.452;2023-12-20T03:45:53;5.78;;;2.60;;
19645;SDS011;9971;52.446;13.452;2023-12-20T03:50:56;3.52;;;2.50;;
19645;SDS011;9971;52.446;13.452;2023-12-20T03:55:58;3.50;;;2.23;;
19645;SDS011;9971;52.446;13.452;2023-12-20T04:01:00;2.87;;;2.45;;
19645;SDS011;9971;52.446;13.452;2023-12-20T04:06:03;3.02;;;2.20;;
19645;SDS011;9971;52.446;13.452;2023-12-20T04:11:05;3.12;;;2.22;;
19645;SDS011;9971;52.446;13.452;2023-12-20T04:16:08;3.33;;;2.25;;
19645;SDS011;9971;52.446;13.452;2023-12-20T04:21:10;2.75;;;1.72;;
19645;SDS011;9971;52.446;13.452;2023-12-20T04:26:13;2.90;;;1.63;;
19645;SDS011;9971;52.446;13.452;2023-12-20T04:31:15;5.50;;;1.95;;
19645;SDS011;9971;52.446;13.452;2023-12-20T04:36:17;3.30;;;1.60;;
19645;SDS011;9971;52.446;13.452;2023-12-20T04:41:20;3.13;;;1.60;;
19645;SDS011;9971;52.446;13.452;2023-12-20T04:46:22;3.17;;;1.55;;
19645;SDS011;9971;52.446;13.452;2023-12-20T04:51:25;3.33;;;1.40;;
19645;SDS011;9971;52.446;13.452;2023-12-20T04:56:27;3.90;;;2.00;;
19645;SDS011;9971;52.446;13.452;2023-12-20T05:01:30;2.67;;;1.67;;
19645;SDS011;9971;52.446;13.452;2023-12-20T05:06:32;3.07;;;1.60;;
19645;SDS011;9971;52.446;13.452;2023-12-20T05:11:35;3.12;;;2.02;;
19645;SDS011;9971;52.446;13.452;2023-12-20T05:16:37;3.67;;;1.70;;
19645;SDS011;9971;52.446;13.452;2023-12-20T05:21:40;2.65;;;1.32;;
19645;SDS011;9971;52.446;13.452;2023-12-20T05:26:42;2.42;;;1.40;;
19645;SDS011;9971;52.446;13.452;2023-12-20T05:31:45;4.72;;;1.30;;
19645;SDS011;9971;52.446;13.452;2023-12-20T05:36:47;3.63;;;1.53;;
19645;SDS011;9971;52.446;13.452;2023-12-20T05:41:50;6.08;;;1.42;;
19645;SDS011;9971;52.446;13.452;2023-12-20T05:46:52;5.85;;;1.85;;
19645;SDS011;9971;52.446;13.452;2023-12-20T05:51:55;8.25;;;1.60;;
19645;SDS011;9971;52.446;13.452;2023-12-20T05:56:57;3.98;;;1.42;;
19645;SDS011;9971;52.446;13.452;2023-12-20T06:01:59;5.72;;;1.65;;
19645;SDS011;9971;52.446;13.452;2023-12-20T06:07:02;2.95;;;1.70;;
19645;SDS011;9971;52.446;13.452;2023-12-20T06:12:05;4.37;;;1.20;;
19645;SDS011;9971;52.446;13.452;2023-12-20T06:17:07;3.43;;;1.20;;
19645;SDS011;9971;52.446;13.452;2023-12-20T06:22:09;3.52;;;1.45;;
19645;SDS011;9971;52.446;13.452;2023-12-20T06:27:12;3.45;;;1.52;;
19645;SDS011;9971;52.446;13.452;2023-12-20T06:32:14;3.92;;;1.80;;
19645;SDS011;9971;52.446;13.452;2023-12-20T06:37:17;4.35;;;1.65;;
19645;SDS011;9971;52.446;13.452;2023-12-20T06:42:19;4.28;;;1.85;;
19645;SDS011;9971;52.446;13.452;2023-12-20T06:47:21;5.75;;;1.80;;
19645;SDS011;9971;52.446;13.452;2023-12-20T06:52:24;5.47;;;1.60;;
19645;SDS011;9971;52.446;13.452;2023-12-20T06:57:26;2.83;;;1.45;;
19645;SDS011;9971;52.446;13.452;2023-12-20T07:02:29;3.77;;;1.17;;
19645;SDS011;9971;52.446;13.452;2023-12-20T07:07:31;3.45;;;1.32;;
19645;SDS011;9971;52.446;13.452;2023-12-20T07:12:33;1.77;;;1.30;;
19645;SDS011;9971;52.446;13.452;2023-12-20T07:17:35;2.67;;;1.50;;
19645;SDS011;9971;52.446;13.452;2023-12-20T07:22:38;5.70;;;1.77;;
19645;SDS011;9971;52.446;13.452;2023-12-20T07:27:40;3.95;;;1.02;;
19645;SDS011;9971;52.446;13.452;2023-12-20T07:32:43;4.83;;;1.40;;
19645;SDS011;9971;52.446;13.452;2023-12-20T07:37:45;5.28;;;1.80;;
19645;SDS011;9971;52.446;13.452;2023-12-20T07:42:48;3.03;;;1.30;;
19645;SDS011;9971;52.446;13.452;2023-12-20T07:47:50;3.22;;;1.52;;
19645;SDS011;9971;52.446;13.452;2023-12-20T07:52:52;2.85;;;1.25;;
19645;SDS011;9971;52.446;13.452;2023-12-20T07:57:55;4.22;;;1.35;;
19645;SDS011;9971;52.446;13.452;2023-12-20T08:02:57;3.30;;;1.30;;
19645;SDS011;9971;52.446;13.452;2023-12-20T08:08:00;6.37;;;1.62;;
19645;SDS011;9971;52.446;13.452;2023-12-20T08:13:02;2.47;;;1.12;;
19645;SDS011;9971;52.446;13.452;2023-12-20T08:18:05;3.05;;;1.25;;
19645;SDS011;9971;52.446;13.452;2023-12-20T08:23:07;3.52;;;1.67;;
19645;SDS011;9971;52.446;13.452;2023-12-20T08:28:10;4.37;;;1.20;;
19645;SDS011;9971;52.446;13.452;2023-12-20T08:33:12;1.50;;;1.12;;
19645;SDS011;9971;52.446;13.452;2023-12-20T08:38:15;3.37;;;1.30;;
19645;SDS011;9971;52.446;13.452;2023-12-20T08:43:17;3.85;;;1.30;;
19645;SDS011;9971;52.446;13.452;2023-12-20T08:48:20;4.00;;;1.20;;
19645;SDS011;9971;52.446;13.452;2023-12-20T08:53:22;2.67;;;1.32;;
19645;SDS011;9971;52.446;13.452;2023-12-20T08:58:24;2.47;;;1.05;;
19645;SDS011;9971;52.446;13.452;2023-12-20T09:03:27;2.90;;;1.55;;
19645;SDS011;9971;52.446;13.452;2023-12-20T09:08:29;2.02;;;1.40;;
19645;SDS011;9971;52.446;13.452;2023-12-20T09:13:32;2.37;;;1.40;;
19645;SDS011;9971;52.446;13.452;2023-12-20T09:18:34;2.72;;;1.30;;
19645;SDS011;9971;52.446;13.452;2023-12-20T09:23:37;3.17;;;1.50;;
19645;SDS011;9971;52.446;13.452;2023-12-20T09:28:39;3.62;;;1.47;;
19645;SDS011;9971;52.446;13.452;2023-12-20T09:33:42;3.17;;;1.07;;
19645;SDS011;9971;52.446;13.452;2023-12-20T09:38:44;2.95;;;1.42;;
19645;SDS011;9971;52.446;13.452;2023-12-20T09:43:47;3.42;;;1.15;;
19645;SDS011;9971;52.446;13.452;2023-12-20T09:48:49;5.70;;;1.60;;
19645;SDS011;9971;52.446;13.452;2023-12-20T09:53:51;3.80;;;1.40;;
19645;SDS011;9971;52.446;13.452;2023-12-20T09:58:53;2.97;;;1.10;;
19645;SDS011;9971;52.446;13.452;2023-12-20T10:03:56;4.20;;;1.20;;
19645;SDS011;9971;52.446;13.452;2023-12-20T10:08:58;2.70;;;1.37;;
19645;SDS011;9971;52.446;13.452;2023-12-20T10:14:00;1.93;;;1.20;;
19645;SDS011;9971;52.446;13.452;2023-12-20T10:19:02;5.22;;;1.47;;
19645;SDS011;9971;52.446;13.452;2023-12-20T10:24:04;2.10;;;1.15;;
19645;SDS011;9971;52.446;13.452;2023-12-20T10:29:07;3.22;;;1.60;;
19645;SDS011;9971;52.446;13.452;2023-12-20T10:34:09;3.33;;;1.40;;
19645;SDS011;9971;52.446;13.452;2023-12-20T10:39:12;3.27;;;1.47;;
19645;SDS011;9971;52.446;13.452;2023-12-20T10:44:14;4.37;;;1.67;;
19645;SDS011;9971;52.446;13.452;2023-12-20T10:49:16;4.63;;;1.80;;
19645;SDS011;9971;52.446;13.452;2023-12-20T10:54:18;4.00;;;1.63;;
19645;SDS011;9971;52.446;13.452;2023-12-20T10:59:20;3.62;;;1.50;;
19645;SDS011;9971;52.446;13.452;2023-12-20T11:04:24;3.60;;;1.60;;
19645;SDS011;9971;52.446;13.452;2023-12-20T11:09:25;4.87;;;1.83;;
19645;SDS011;9971;52.446;13.452;2023-12-20T11:14:34;5.20;;;1.65;;
19645;SDS011;9971;52.446;13.452;2023-12-20T11:25:10;4.23;;;1.83;;
19645;SDS011;9971;52.446;13.452;2023-12-20T11:30:11;5.53;;;1.90;;
19645;SDS011;9971;52.446;13.452;2023-12-20T11:35:17;2.77;;;1.62;;
19645;SDS011;9971;52.446;13.452;2023-12-20T11:40:19;5.83;;;2.03;;
19645;SDS011;9971;52.446;13.452;2023-12-20T11:45:22;4.40;;;1.52;;
19645;SDS011;9971;52.446;13.452;2023-12-20T11:50:23;6.97;;;1.70;;
19645;SDS011;9971;52.446;13.452;2023-12-20T11:55:25;3.73;;;1.57;;
19645;SDS011;9971;52.446;13.452;2023-12-20T12:00:27;2.17;;;1.30;;
19645;SDS011;9971;52.446;13.452;2023-12-20T12:05:30;5.00;;;1.60;;
19645;SDS011;9971;52.446;13.452;2023-12-20T12:10:32;6.00;;;1.63;;
19645;SDS011;9971;52.446;13.452;2023-12-20T12:15:34;3.02;;;1.67;;
19645;SDS011;9971;52.446;13.452;2023-12-20T12:20:36;3.70;;;1.17;;
19645;SDS011;9971;52.446;13.452;2023-12-20T12:25:39;3.62;;;1.47;;
19645;SDS011;9971;52.446;13.452;2023-12-20T12:30:41;4.75;;;1.60;;
19645;SDS011;9971;52.446;13.452;2023-12-20T12:35:43;3.02;;;1.45;;
19645;SDS011;9971;52.446;13.452;2023-12-20T12:40:46;3.65;;;1.77;;
19645;SDS011;9971;52.446;13.452;2023-12-20T12:45:48;3.80;;;1.83;;
19645;SDS011;9971;52.446;13.452;2023-12-20T12:50:50;2.70;;;1.30;;
19645;SDS011;9971;52.446;13.452;2023-12-20T12:55:52;1.77;;;1.20;;
19645;SDS011;9971;52.446;13.452;2023-12-20T13:00:55;4.50;;;1.77;;
19645;SDS011;9971;52.446;13.452;2023-12-20T13:05:57;2.50;;;1.40;;
19645;SDS011;9971;52.446;13.452;2023-12-20T13:10:59;3.13;;;1.30;;
19645;SDS011;9971;52.446;13.452;2023-12-20T13:16:01;2.22;;;1.40;;
19645;SDS011;9971;52.446;13.452;2023-12-20T13:21:04;2.40;;;1.60;;
19645;SDS011;9971;52.446;13.452;2023-12-20T13:26:06;2.83;;;1.32;;
19645;SDS011;9971;52.446;13.452;2023-12-20T13:31:08;3.00;;;1.40;;
19645;SDS011;9971;52.446;13.452;2023-12-20T13:36:11;1.98;;;1.15;;
19645;SDS011;9971;52.446;13.452;2023-12-20T13:41:13;1.57;;;1.23;;
19645;SDS011;9971;52.446;13.452;2023-12-20T13:46:15;1.12;;;0.70;;
19645;SDS011;9971;52.446;13.452;2023-12-20T13:51:18;0.78;;;0.47;;
19645;SDS011;9971;52.446;13.452;2023-12-20T13:56:20;1.45;;;0.65;;
19645;SDS011;9971;52.446;13.452;2023-12-20T14:01:23;2.20;;;0.60;;
19645;SDS011;9971;52.446;13.452;2023-12-20T14:06:24;1.83;;;0.70;;
19645;SDS011;9971;52.446;13.452;2023-12-20T14:11:27;2.47;;;0.50;;
19645;SDS011;9971;52.446;13.452;2023-12-20T14:16:30;1.07;;;0.57;;
19645;SDS011;9971;52.446;13.452;2023-12-20T14:21:32;0.62;;;0.62;;
19645;SDS011;9971;52.446;13.452;2023-12-20T14:26:34;0.60;;;0.60;;
19645;SDS011;9971;52.446;13.452;2023-12-20T14:31:36;0.62;;;0.50;;
19645;SDS011;9971;52.446;13.452;2023-12-20T14:36:39;0.62;;;0.60;;
19645;SDS011;9971;52.446;13.452;2023-12-20T14:41:42;0.35;;;0.35;;
19645;SDS011;9971;52.446;13.452;2023-12-20T14:46:43;1.33;;;0.57;;
19645;SDS011;9971;52.446;13.452;2023-12-20T14:51:46;0.68;;;0.65;;
19645;SDS011;9971;52.446;13.452;2023-12-20T14:56:48;0.62;;;0.60;;
19645;SDS011;9971;52.446;13.452;2023-12-20T15:01:50;0.70;;;0.62;;
19645;SDS011;9971;52.446;13.452;2023-12-20T15:06:53;0.78;;;0.72;;
19645;SDS011;9971;52.446;13.452;2023-12-20T15:11:55;0.70;;;0.60;;
19645;SDS011;9971;52.446;13.452;2023-12-20T15:16:58;1.25;;;0.70;;
19645;SDS011;9971;52.446;13.452;2023-12-20T15:22:00;2.37;;;0.80;;
19645;SDS011;9971;52.446;13.452;2023-12-20T15:27:02;1.30;;;0.80;;
19645;SDS011;9971;52.446;13.452;2023-12-20T15:32:05;0.75;;;0.70;;
19645;SDS011;9971;52.446;13.452;2023-12-20T15:37:08;2.10;;;1.10;;
19645;SDS011;9971;52.446;13.452;2023-12-20T15:42:10;0.65;;;0.65;;
19645;SDS011;9971;52.446;13.452;2023-12-20T15:47:13;0.95;;;0.70;;
19645;SDS011;9971;52.446;13.452;2023-12-20T15:52:15;0.93;;;0.82;;
19645;SDS011;9971;52.446;13.452;2023-12-20T15:57:18;1.25;;;0.90;;
19645;SDS011;9971;52.446;13.452;2023-12-20T16:02:20;2.93;;;1.23;;
19645;SDS011;9971;52.446;13.452;2023-12-20T16:07:22;1.65;;;0.90;;
19645;SDS011;9971;52.446;13.452;2023-12-20T16:12:24;2.12;;;0.90;;
19645;SDS011;9971;52.446;13.452;2023-12-20T16:17:27;1.32;;;0.93;;
19645;SDS011;9971;52.446;13.452;2023-12-20T16:22:30;1.95;;;0.98;;
19645;SDS011;9971;52.446;13.452;2023-12-20T16:27:32;1.37;;;1.07;;
19645;SDS011;9971;52.446;13.452;2023-12-20T16:32:35;0.80;;;0.80;;
19645;SDS011;9971;52.446;13.452;2023-12-20T16:37:37;1.72;;;1.17;;
19645;SDS011;9971;52.446;13.452;2023-12-20T16:42:39;1.10;;;0.73;;
19645;SDS011;9971;52.446;13.452;2023-12-20T16:47:42;1.87;;;1.15;;
19645;SDS011;9971;52.446;13.452;2023-12-20T16:52:45;1.70;;;1.10;;
19645;SDS011;9971;52.446;13.452;2023-12-20T16:57:47;1.45;;;1.00;;
19645;SDS011;9971;52.446;13.452;2023-12-20T17:02:49;2.47;;;0.95;;
19645;SDS011;9971;52.446;13.452;2023-12-20T17:07:52;1.15;;;0.50;;
19645;SDS011;9971;52.446;13.452;2023-12-20T17:12:54;1.55;;;1.12;;
19645;SDS011;9971;52.446;13.452;2023-12-20T17:17:58;2.80;;;1.57;;
19645;SDS011;9971;52.446;13.452;2023-12-20T17:23:00;2.47;;;1.37;;
19645;SDS011;9971;52.446;13.452;2023-12-20T17:28:02;2.77;;;1.30;;
19645;SDS011;9971;52.446;13.452;2023-12-20T17:33:05;1.77;;;1.20;;
19645;SDS011;9971;52.446;13.452;2023-12-20T17:38:07;2.00;;;1.30;;
19645;SDS011;9971;52.446;13.452;2023-12-20T17:43:10;2.50;;;1.47;;
19645;SDS011;9971;52.446;13.452;2023-12-20T17:48:12;4.28;;;1.82;;
19645;SDS011;9971;52.446;13.452;2023-12-20T17:53:15;3.05;;;1.35;;
19645;SDS011;9971;52.446;13.452;2023-12-20T17:58:17;2.60;;;1.47;;
19645;SDS011;9971;52.446;13.452;2023-12-20T18:03:20;2.80;;;1.52;;
19645;SDS011;9971;52.446;13.452;2023-12-20T18:08:22;2.08;;;1.10;;
19645;SDS011;9971;52.446;13.452;2023-12-20T18:13:25;2.43;;;1.73;;
19645;SDS011;9971;52.446;13.452;2023-12-20T18:18:27;2.25;;;1.35;;
19645;SDS011;9971;52.446;13.452;2023-12-20T18:23:30;2.37;;;1.52;;
19645;SDS011;9971;52.446;13.452;2023-12-20T18:28:32;3.30;;;1.67;;
19645;SDS011;9971;52.446;13.452;2023-12-20T18:33:35;3.20;;;1.85;;
19645;SDS011;9971;52.446;13.452;2023-12-20T18:38:37;3.72;;;1.57;;
19645;SDS011;9971;52.446;13.452;2023-12-20T18:43:40;4.87;;;1.47;;
19645;SDS011;9971;52.446;13.452;2023-12-20T18:48:42;3.53;;;1.53;;
19645;SDS011;9971;52.446;13.452;2023-12-20T18:53:44;3.25;;;1.47;;
19645;SDS011;9971;52.446;13.452;2023-12-20T18:58:46;4.37;;;1.57;;
19645;SDS011;9971;52.446;13.452;2023-12-20T19:03:49;3.50;;;1.50;;
19645;SDS011;9971;52.446;13.452;2023-12-20T19:08:51;5.00;;;1.67;;
19645;SDS011;9971;52.446;13.452;2023-12-20T19:13:53;4.33;;;1.60;;
19645;SDS011;9971;52.446;13.452;2023-12-20T19:18:56;3.25;;;1.80;;
19645;SDS011;9971;52.446;13.452;2023-12-20T19:23:58;3.27;;;1.57;;
19645;SDS011;9971;52.446;13.452;2023-12-20T19:29:01;2.00;;;1.50;;
19645;SDS011;9971;52.446;13.452;2023-12-20T19:34:03;1.82;;;1.30;;
19645;SDS011;9971;52.446;13.452;2023-12-20T19:39:06;4.10;;;1.42;;
19645;SDS011;9971;52.446;13.452;2023-12-20T19:44:09;2.92;;;1.50;;
19645;SDS011;9971;52.446;13.452;2023-12-20T19:49:12;2.45;;;1.40;;
19645;SDS011;9971;52.446;13.452;2023-12-20T19:54:14;3.15;;;1.52;;
19645;SDS011;9971;52.446;13.452;2023-12-20T19:59:17;1.35;;;1.00;;
19645;SDS011;9971;52.446;13.452;2023-12-20T20:04:19;3.25;;;1.10;;
19645;SDS011;9971;52.446;13.452;2023-12-20T20:09:22;2.80;;;1.47;;
19645;SDS011;9971;52.446;13.452;2023-12-20T20:14:24;2.40;;;1.37;;
19645;SDS011;9971;52.446;13.452;2023-12-20T20:19:27;1.32;;;1.10;;
19645;SDS011;9971;52.446;13.452;2023-12-20T20:24:28;2.67;;;1.20;;
19645;SDS011;9971;52.446;13.452;2023-12-20T20:29:31;2.25;;;1.37;;
19645;SDS011;9971;52.446;13.452;2023-12-20T20:34:33;3.35;;;1.52;;
19645;SDS011;9971;52.446;13.452;2023-12-20T20:39:36;2.58;;;1.20;;
19645;SDS011;9971;52.446;13.452;2023-12-20T20:44:38;3.47;;;1.33;;
19645;SDS011;9971;52.446;13.452;2023-12-20T20:49:41;3.37;;;1.25;;
19645;SDS011;9971;52.446;13.452;2023-12-20T20:54:43;3.73;;;1.60;;
19645;SDS011;9971;52.446;13.452;2023-12-20T20:59:46;1.80;;;1.12;;
19645;SDS011;9971;52.446;13.452;2023-12-20T21:04:53;3.00;;;1.20;;
19645;SDS011;9971;52.446;13.452;2023-12-20T21:09:55;1.47;;;0.85;;
19645;SDS011;9971;52.446;13.452;2023-12-20T21:14:57;2.17;;;1.00;;
19645;SDS011;9971;52.446;13.452;2023-12-20T21:20:00;0.60;;;0.60;;
19645;SDS011;9971;52.446;13.452;2023-12-20T21:25:02;1.72;;;0.98;;
19645;SDS011;9971;52.446;13.452;2023-12-20T21:30:06;1.50;;;0.77;;
19645;SDS011;9971;52.446;13.452;2023-12-20T21:35:08;1.15;;;1.05;;
19645;SDS011;9971;52.446;13.452;2023-12-20T21:40:11;1.05;;;0.93;;
19645;SDS011;9971;52.446;13.452;2023-12-20T21:45:13;1.47;;;0.90;;
19645;SDS011;9971;52.446;13.452;2023-12-20T21:50:15;1.00;;;0.90;;
19645;SDS011;9971;52.446;13.452;2023-12-20T21:55:17;1.85;;;0.95;;
19645;SDS011;9971;52.446;13.452;2023-12-20T22:00:20;1.73;;;0.90;;
19645;SDS011;9971;52.446;13.452;2023-12-20T22:05:23;0.85;;;0.70;;
19645;SDS011;9971;52.446;13.452;2023-12-20T22:10:27;1.50;;;0.97;;
19645;SDS011;9971;52.446;13.452;2023-12-20T22:15:30;0.85;;;0.80;;
19645;SDS011;9971;52.446;13.452;2023-12-20T22:20:32;0.78;;;0.78;;
19645;SDS011;9971;52.446;13.452;2023-12-20T22:25:34;1.87;;;0.87;;
19645;SDS011;9971;52.446;13.452;2023-12-20T22:30:37;2.62;;;0.98;;
19645;SDS011;9971;52.446;13.452;2023-12-20T22:35:39;0.90;;;0.62;;
19645;SDS011;9971;52.446;13.452;2023-12-20T22:40:42;1.02;;;0.65;;
19645;SDS011;9971;52.446;13.452;2023-12-20T22:45:44;1.55;;;0.70;;
19645;SDS011;9971;52.446;13.452;2023-12-20T22:50:47;1.35;;;0.93;;
19645;SDS011;9971;52.446;13.452;2023-12-20T22:55:49;2.27;;;1.17;;
19645;SDS011;9971;52.446;13.452;2023-12-20T23:00:52;1.30;;;0.88;;
19645;SDS011;9971;52.446;13.452;2023-12-20T23:05:54;2.55;;;0.88;;
19645;SDS011;9971;52.446;13.452;2023-12-20T23:10:57;1.57;;;0.80;;
19645;SDS011;9971;52.446;13.452;2023-12-20T23:15:59;0.65;;;0.60;;
19645;SDS011;9971;52.446;13.452;2023-12-20T23:21:02;2.17;;;0.60;;
19645;SDS011;9971;52.446;13.452;2023-12-20T23:26:04;0.50;;;0.50;;
19645;SDS011;9971;52.446;13.452;2023-12-20T23:31:07;0.68;;;0.68;;
19645;SDS011;9971;52.446;13.452;2023-12-20T23:36:08;0.57;;;0.57;;
19645;SDS011;9971;52.446;13.452;2023-12-20T23:41:11;1.07;;;0.78;;
19645;SDS011;9971;52.446;13.452;2023-12-20T23:46:13;0.70;;;0.70;;
19645;SDS011;9971;52.446;13.452;2023-12-20T23:51:15;0.80;;;0.80;;
19645;SDS011;9971;52.446;13.452;2023-12-20T23:56:18;0.70;;;0.70;;
